Time,TemperatureF,DewpointF,PressureIn,WindDirection,WindDirectionDegrees,WindSpeedMPH,WindSpeedGustMPH,Humidity,HourlyPrecipIn,Conditions,Clouds,dailyrainin,SoftwareType,DateUTC
2013-05-31 00:05:00,62.9,61.1,29.70,SE,124,1.0,1.0,94,0.00,,,0.33,Wunderground v.1.13,2013-05-31 05:05:00,
2013-05-31 00:15:00,62.7,60.9,29.69,SE,136,2.0,2.0,94,0.00,,,0.33,Wunderground v.1.13,2013-05-31 05:15:00,
2013-05-31 00:25:00,62.6,60.8,29.70,SSE,155,2.0,2.0,94,0.00,,,0.34,Wunderground v.1.13,2013-05-31 05:25:00,
2013-05-31 00:30:00,62.6,60.8,29.70,ESE,111,2.0,2.0,94,0.00,,,0.34,Wunderground v.1.13,2013-05-31 05:30:00,
2013-05-31 00:40:00,62.6,60.8,29.68,South,169,2.0,9.0,94,0.00,,,0.34,Wunderground v.1.13,2013-05-31 05:40:00,
2013-05-31 00:45:00,62.6,61.1,29.68,SE,144,1.0,1.0,95,0.00,,,0.34,Wunderground v.1.13,2013-05-31 05:45:00,
2013-05-31 00:55:00,62.6,61.1,29.68,SSE,167,1.0,1.0,95,0.00,,,0.34,Wunderground v.1.13,2013-05-31 05:55:00,
2013-05-31 01:00:00,62.6,61.1,29.68,SE,131,1.0,9.0,95,0.00,,,0.34,Wunderground v.1.13,2013-05-31 06:00:00,
2013-05-31 01:05:00,62.4,60.9,29.68,SSE,155,1.0,1.0,95,0.00,,,0.34,Wunderground v.1.13,2013-05-31 06:05:00,
2013-05-31 01:15:00,62.4,60.9,29.69,SE,142,1.0,13.0,95,0.00,,,0.34,Wunderground v.1.13,2013-05-31 06:15:00,
2013-05-31 01:25:00,62.4,60.9,29.68,SSE,157,1.0,1.0,95,0.00,,,0.34,Wunderground v.1.13,2013-05-31 06:25:00,
2013-05-31 01:35:00,62.3,60.8,29.68,SE,141,2.0,12.0,95,0.00,,,0.34,Wunderground v.1.13,2013-05-31 06:35:00,
2013-05-31 01:40:00,62.3,61.1,29.67,SSE,159,1.0,1.0,96,0.00,,,0.34,Wunderground v.1.13,2013-05-31 06:40:00,
2013-05-31 01:45:00,62.3,61.1,29.67,SSE,150,2.0,2.0,96,0.00,,,0.34,Wunderground v.1.13,2013-05-31 06:45:00,
2013-05-31 01:50:00,62.4,61.2,29.67,ESE,103,3.0,3.0,96,0.00,,,0.34,Wunderground v.1.13,2013-05-31 06:50:00,
2013-05-31 02:00:00,62.4,61.2,29.66,SSE,162,2.0,2.0,96,0.00,,,0.34,Wunderground v.1.13,2013-05-31 07:00:00,
2013-05-31 02:05:00,62.4,61.2,29.66,SSE,148,1.0,10.0,96,0.00,,,0.34,Wunderground v.1.13,2013-05-31 07:05:00,
2013-05-31 02:15:00,62.4,61.2,29.65,SSE,155,1.0,10.0,96,0.00,,,0.34,Wunderground v.1.13,2013-05-31 07:15:00,
2013-05-31 02:25:00,62.6,61.4,29.67,SSE,150,1.0,1.0,96,0.00,,,0.34,Wunderground v.1.13,2013-05-31 07:25:00,
2013-05-31 02:30:00,62.7,61.5,29.67,SE,144,1.0,1.0,96,0.00,,,0.34,Wunderground v.1.13,2013-05-31 07:30:00,
2013-05-31 02:35:00,62.7,61.5,29.67,SSE,165,2.0,2.0,96,0.00,,,0.34,Wunderground v.1.13,2013-05-31 07:35:00,
2013-05-31 02:45:00,62.9,61.7,29.67,SSE,160,2.0,11.0,96,0.00,,,0.34,Wunderground v.1.13,2013-05-31 07:45:00,
2013-05-31 02:55:00,63.1,61.9,29.67,SE,144,2.0,2.0,96,0.00,,,0.34,Wunderground v.1.13,2013-05-31 07:55:00,
2013-05-31 03:00:00,63.1,61.9,29.67,South,186,1.0,11.0,96,0.00,,,0.34,Wunderground v.1.13,2013-05-31 08:00:00,
2013-05-31 03:05:00,63.1,61.6,29.67,ESE,116,2.0,2.0,95,0.00,,,0.34,Wunderground v.1.13,2013-05-31 08:05:00,
2013-05-31 03:15:00,63.2,61.7,29.67,South,190,3.0,3.0,95,0.00,,,0.35,Wunderground v.1.13,2013-05-31 08:15:00,
2013-05-31 03:25:00,63.1,61.6,29.66,South,172,3.0,9.0,95,0.07,,,0.36,Wunderground v.1.13,2013-05-31 08:25:00,
2013-05-31 03:30:00,62.9,61.4,29.66,SE,144,4.0,9.0,95,0.05,,,0.36,Wunderground v.1.13,2013-05-31 08:30:00,
2013-05-31 03:40:00,62.7,60.9,29.66,SSE,165,3.0,10.0,94,0.00,,,0.36,Wunderground v.1.13,2013-05-31 08:40:00,
2013-05-31 03:50:00,62.6,60.8,29.66,East,88,1.0,1.0,94,0.00,,,0.36,Wunderground v.1.13,2013-05-31 08:50:00,
2013-05-31 04:00:00,62.3,60.6,29.65,SSE,155,0.0,10.0,94,0.00,,,0.36,Wunderground v.1.13,2013-05-31 09:00:00,
2013-05-31 04:05:00,62.1,60.4,29.65,SSE,161,1.0,1.0,94,0.00,,,0.36,Wunderground v.1.13,2013-05-31 09:05:00,
2013-05-31 04:15:00,62.1,60.4,29.66,SW,233,1.0,14.0,94,0.00,,,0.36,Wunderground v.1.13,2013-05-31 09:15:00,
2013-05-31 04:25:00,62.3,60.6,29.67,SSW,193,3.0,14.0,94,0.00,,,0.36,Wunderground v.1.13,2013-05-31 09:25:00,
2013-05-31 04:35:00,62.4,60.7,29.67,South,175,3.0,11.0,94,0.00,,,0.36,Wunderground v.1.13,2013-05-31 09:35:00,
2013-05-31 04:45:00,62.6,60.8,29.67,SSW,193,2.0,2.0,94,0.00,,,0.36,Wunderground v.1.13,2013-05-31 09:45:00,
2013-05-31 04:55:00,62.9,61.1,29.67,South,186,4.0,11.0,94,0.00,,,0.36,Wunderground v.1.13,2013-05-31 09:55:00,
2013-05-31 05:00:00,62.9,61.1,29.67,SE,146,3.0,11.0,94,0.00,,,0.36,Wunderground v.1.13,2013-05-31 10:00:00,
2013-05-31 05:05:00,63.1,61.3,29.67,SSW,192,3.0,11.0,94,0.00,,,0.36,Wunderground v.1.13,2013-05-31 10:05:00,
2013-05-31 05:15:00,63.1,61.3,29.67,SSW,196,3.0,11.0,94,0.00,,,0.36,Wunderground v.1.13,2013-05-31 10:15:00,
2013-05-31 05:25:00,63.2,61.4,29.68,SSE,165,3.0,11.0,94,0.00,,,0.36,Wunderground v.1.13,2013-05-31 10:25:00,
2013-05-31 05:35:00,63.4,61.6,29.68,SSE,161,3.0,3.0,94,0.00,,,0.36,Wunderground v.1.13,2013-05-31 10:35:00,
2013-05-31 05:45:00,63.4,61.6,29.69,South,173,2.0,14.0,94,0.00,,,0.36,Wunderground v.1.13,2013-05-31 10:45:00,
2013-05-31 05:50:00,63.4,61.6,29.69,SW,223,1.0,14.0,94,0.00,,,0.36,Wunderground v.1.13,2013-05-31 10:50:00,
2013-05-31 05:55:00,63.4,61.6,29.68,SSE,165,2.0,14.0,94,0.00,,,0.36,Wunderground v.1.13,2013-05-31 10:55:00,
2013-05-31 06:00:00,63.4,61.6,29.68,SSW,200,3.0,14.0,94,0.00,,,0.36,Wunderground v.1.13,2013-05-31 11:00:00,
2013-05-31 06:05:00,63.4,61.3,29.68,SSE,163,3.0,3.0,93,0.00,,,0.36,Wunderground v.1.13,2013-05-31 11:05:00,
2013-05-31 06:15:00,63.5,61.4,29.67,South,184,3.0,3.0,93,0.00,,,0.00,Wunderground v.1.13,2013-05-31 11:15:00,
2013-05-31 06:20:00,63.5,61.4,29.67,South,190,2.0,11.0,93,0.00,,,0.00,Wunderground v.1.13,2013-05-31 11:20:00,
2013-05-31 06:30:00,63.4,61.0,29.66,ESE,121,3.0,3.0,92,0.00,,,0.00,Wunderground v.1.13,2013-05-31 11:30:00,
2013-05-31 06:35:00,63.5,61.1,29.66,SSW,193,3.0,11.0,92,0.00,,,0.00,Wunderground v.1.13,2013-05-31 11:35:00,
2013-05-31 06:45:00,63.7,61.3,29.66,SSE,163,2.0,2.0,92,0.00,,,0.00,Wunderground v.1.13,2013-05-31 11:45:00,
2013-05-31 06:50:00,63.9,61.5,29.66,South,178,2.0,11.0,92,0.00,,,0.00,Wunderground v.1.13,2013-05-31 11:50:00,
2013-05-31 07:00:00,64.0,61.3,29.66,SE,142,2.0,2.0,91,0.00,,,0.00,Wunderground v.1.13,2013-05-31 12:00:00,
2013-05-31 07:05:00,64.2,61.5,29.66,South,188,2.0,13.0,91,0.00,,,0.00,Wunderground v.1.13,2013-05-31 12:05:00,
2013-05-31 07:15:00,64.0,60.7,29.67,SSW,213,5.0,5.0,89,0.00,,,0.00,Wunderground v.1.13,2013-05-31 12:15:00,
2013-05-31 07:25:00,64.0,60.7,29.67,SSW,198,4.0,4.0,89,0.00,,,0.00,Wunderground v.1.13,2013-05-31 12:25:00,
2013-05-31 07:30:00,64.2,60.9,29.67,South,184,3.0,13.0,89,0.00,,,0.00,Wunderground v.1.13,2013-05-31 12:30:00,
2013-05-31 07:40:00,64.3,60.7,29.67,SSW,193,5.0,5.0,88,0.00,,,0.00,Wunderground v.1.13,2013-05-31 12:40:00,
2013-05-31 07:50:00,64.5,60.5,29.67,South,178,5.0,13.0,87,0.00,,,0.00,Wunderground v.1.13,2013-05-31 12:50:00,
2013-05-31 07:55:00,64.5,60.5,29.68,South,177,5.0,5.0,87,0.00,,,0.00,Wunderground v.1.13,2013-05-31 12:55:00,
2013-05-31 08:05:00,64.7,60.4,29.68,South,180,4.0,4.0,86,0.00,,,0.00,Wunderground v.1.13,2013-05-31 13:05:00,
2013-05-31 08:15:00,64.8,60.5,29.68,SSW,196,3.0,3.0,86,0.00,,,0.00,Wunderground v.1.13,2013-05-31 13:15:00,
2013-05-31 08:20:00,64.8,60.5,29.68,South,171,3.0,3.0,86,0.00,,,0.00,Wunderground v.1.13,2013-05-31 13:20:00,
2013-05-31 08:25:00,65.0,60.7,29.69,South,190,3.0,19.0,86,0.00,,,0.00,Wunderground v.1.13,2013-05-31 13:25:00,
2013-05-31 08:35:00,65.3,60.7,29.69,South,190,5.0,5.0,85,0.00,,,0.00,Wunderground v.1.13,2013-05-31 13:35:00,
2013-05-31 08:40:00,65.3,60.7,29.70,SE,136,4.0,19.0,85,0.00,,,0.00,Wunderground v.1.13,2013-05-31 13:40:00,
2013-05-31 08:50:00,65.6,61.0,29.70,SSW,200,4.0,19.0,85,0.00,,,0.00,Wunderground v.1.13,2013-05-31 13:50:00,
2013-05-31 09:00:00,66.1,61.1,29.70,South,190,5.0,5.0,84,0.00,,,0.00,Wunderground v.1.13,2013-05-31 14:00:00,
2013-05-31 09:05:00,66.4,61.1,29.70,South,179,4.0,4.0,83,0.00,,,0.00,Wunderground v.1.13,2013-05-31 14:05:00,
2013-05-31 09:15:00,66.8,61.1,29.70,SE,125,4.0,4.0,82,0.00,,,0.00,Wunderground v.1.13,2013-05-31 14:15:00,
2013-05-31 09:20:00,66.9,61.6,29.70,SE,136,3.0,3.0,83,0.00,,,0.00,Wunderground v.1.13,2013-05-31 14:20:00,
2013-05-31 09:25:00,67.1,61.4,29.70,South,171,3.0,3.0,82,0.00,,,0.00,Wunderground v.1.13,2013-05-31 14:25:00,
2013-05-31 09:35:00,67.6,61.2,29.70,South,177,4.0,16.0,80,0.00,,,0.00,Wunderground v.1.13,2013-05-31 14:35:00,
2013-05-31 09:45:00,68.4,61.6,29.69,SSW,192,4.0,16.0,79,0.00,,,0.00,Wunderground v.1.13,2013-05-31 14:45:00,
2013-05-31 09:55:00,69.3,61.8,29.69,SSW,205,3.0,16.0,77,0.00,,,0.00,Wunderground v.1.13,2013-05-31 14:55:00,
2013-05-31 10:00:00,69.4,62.2,29.69,SW,215,5.0,16.0,78,0.00,,,0.00,Wunderground v.1.13,2013-05-31 15:00:00,
2013-05-31 10:05:00,69.3,62.1,29.69,SW,215,5.0,5.0,78,0.00,,,0.00,Wunderground v.1.13,2013-05-31 15:05:00,
2013-05-31 10:15:00,69.1,61.6,29.69,South,175,5.0,5.0,77,0.00,,,0.00,Wunderground v.1.13,2013-05-31 15:15:00,
2013-05-31 10:20:00,69.4,62.2,29.69,South,172,5.0,16.0,78,0.00,,,0.00,Wunderground v.1.13,2013-05-31 15:20:00,
2013-05-31 10:25:00,69.9,62.0,29.69,South,186,4.0,4.0,76,0.00,,,0.00,Wunderground v.1.13,2013-05-31 15:25:00,
2013-05-31 10:35:00,71.1,62.0,29.69,South,171,5.0,15.0,73,0.00,,,0.00,Wunderground v.1.13,2013-05-31 15:35:00,
2013-05-31 10:45:00,71.1,63.1,29.69,South,182,5.0,5.0,76,0.00,,,0.00,Wunderground v.1.13,2013-05-31 15:45:00,
2013-05-31 10:55:00,70.6,63.4,29.70,South,176,5.0,5.0,78,0.00,,,0.00,Wunderground v.1.13,2013-05-31 15:55:00,
2013-05-31 11:05:00,70.6,63.8,29.70,SSE,161,5.0,5.0,79,0.00,,,0.00,Wunderground v.1.13,2013-05-31 16:05:00,
2013-05-31 11:15:00,70.9,64.1,29.68,SSE,161,2.0,18.0,79,0.00,,,0.00,Wunderground v.1.13,2013-05-31 16:15:00,
2013-05-31 11:25:00,70.8,64.0,29.67,SSE,166,2.0,18.0,79,0.00,,,0.00,Wunderground v.1.13,2013-05-31 16:25:00,
2013-05-31 11:30:00,70.8,64.3,29.67,SSE,148,2.0,18.0,80,0.00,,,0.00,Wunderground v.1.13,2013-05-31 16:30:00,
2013-05-31 11:35:00,70.6,64.1,29.67,SSE,159,2.0,16.0,80,0.00,,,0.00,Wunderground v.1.13,2013-05-31 16:35:00,
2013-05-31 11:45:00,70.4,64.3,29.67,SSE,159,2.0,2.0,81,0.00,,,0.00,Wunderground v.1.13,2013-05-31 16:45:00,
2013-05-31 11:50:00,70.3,64.5,29.67,SSE,153,1.0,1.0,82,0.00,,,0.00,Wunderground v.1.13,2013-05-31 16:50:00,
2013-05-31 12:00:00,70.1,64.7,29.69,SE,146,1.0,1.0,83,0.00,,,0.00,Wunderground v.1.13,2013-05-31 17:00:00,
2013-05-31 12:05:00,70.1,64.7,29.69,SSW,197,1.0,1.0,83,0.00,,,0.00,Wunderground v.1.13,2013-05-31 17:05:00,
2013-05-31 12:15:00,70.3,64.9,29.69,South,184,0.0,19.0,83,0.00,,,0.00,Wunderground v.1.13,2013-05-31 17:15:00,
2013-05-31 12:25:00,71.1,65.0,29.68,SSE,167,1.0,19.0,81,0.00,,,0.00,Wunderground v.1.13,2013-05-31 17:25:00,
2013-05-31 12:35:00,71.6,64.7,29.68,South,188,3.0,3.0,79,0.00,,,0.00,Wunderground v.1.13,2013-05-31 17:35:00,
2013-05-31 12:45:00,72.1,64.9,29.68,SSE,165,2.0,2.0,78,0.00,,,0.00,Wunderground v.1.13,2013-05-31 17:45:00,
2013-05-31 12:55:00,72.8,64.8,29.67,South,169,3.0,9.0,76,0.00,,,0.00,Wunderground v.1.13,2013-05-31 17:55:00,
2013-05-31 13:00:00,73.2,65.2,29.67,SSE,160,3.0,9.0,76,0.00,,,0.00,Wunderground v.1.13,2013-05-31 18:00:00,
2013-05-31 13:05:00,73.0,64.2,29.67,SE,125,3.0,3.0,74,0.00,,,0.00,Wunderground v.1.13,2013-05-31 18:05:00,
2013-05-31 13:15:00,73.0,64.2,29.66,South,187,2.0,2.0,74,0.00,,,0.00,Wunderground v.1.13,2013-05-31 18:15:00,
2013-05-31 13:25:00,73.2,64.0,29.67,SSE,161,3.0,15.0,73,0.00,,,0.00,Wunderground v.1.13,2013-05-31 18:25:00,
2013-05-31 13:30:00,73.5,64.7,29.67,SSW,195,4.0,4.0,74,0.00,,,0.00,Wunderground v.1.13,2013-05-31 18:30:00,
2013-05-31 13:35:00,74.0,64.4,29.67,South,173,3.0,3.0,72,0.00,,,0.00,Wunderground v.1.13,2013-05-31 18:35:00,
2013-05-31 13:40:00,74.4,64.4,29.67,SSW,196,2.0,12.0,71,0.00,,,0.00,Wunderground v.1.13,2013-05-31 18:40:00,
2013-05-31 13:50:00,73.9,63.5,29.67,SSW,192,3.0,12.0,70,0.00,,,0.00,Wunderground v.1.13,2013-05-31 18:50:00,
2013-05-31 14:00:00,74.0,64.4,29.65,SW,223,3.0,3.0,72,0.00,,,0.00,Wunderground v.1.13,2013-05-31 19:00:00,
2013-05-31 14:05:00,74.7,65.5,29.65,SW,222,3.0,15.0,73,0.00,,,0.00,Wunderground v.1.13,2013-05-31 19:05:00,
2013-05-31 14:15:00,74.9,64.9,29.66,South,190,2.0,2.0,71,0.00,,,0.00,Wunderground v.1.13,2013-05-31 19:15:00,
2013-05-31 14:20:00,74.7,64.3,29.66,SE,134,1.0,15.0,70,0.00,,,0.00,Wunderground v.1.13,2013-05-31 19:20:00,
2013-05-31 14:30:00,74.2,64.2,29.65,SSW,203,2.0,15.0,71,0.00,,,0.00,Wunderground v.1.13,2013-05-31 19:30:00,
2013-05-31 14:35:00,73.9,64.3,29.65,SSW,211,4.0,4.0,72,0.00,,,0.00,Wunderground v.1.13,2013-05-31 19:35:00,
2013-05-31 14:45:00,73.7,63.7,29.65,South,174,2.0,14.0,71,0.00,,,0.00,Wunderground v.1.13,2013-05-31 19:45:00,
2013-05-31 14:55:00,73.7,63.3,29.66,South,188,2.0,2.0,70,0.00,,,0.00,Wunderground v.1.13,2013-05-31 19:55:00,
2013-05-31 15:00:00,73.7,63.3,29.66,SW,221,2.0,14.0,70,0.00,,,0.00,Wunderground v.1.13,2013-05-31 20:00:00,
2013-05-31 15:05:00,73.9,63.5,29.66,South,190,2.0,15.0,70,0.00,,,0.00,Wunderground v.1.13,2013-05-31 20:05:00,
2013-05-31 15:15:00,73.5,62.3,29.66,SSW,197,3.0,3.0,68,0.00,,,0.00,Wunderground v.1.13,2013-05-31 20:15:00,
2013-05-31 15:25:00,73.0,62.6,29.66,SW,228,4.0,4.0,70,0.00,,,0.00,Wunderground v.1.13,2013-05-31 20:25:00,
2013-05-31 15:30:00,73.0,63.0,29.66,South,173,4.0,15.0,71,0.00,,,0.00,Wunderground v.1.13,2013-05-31 20:30:00,
2013-05-31 15:40:00,72.8,63.2,29.66,South,186,3.0,3.0,72,0.00,,,0.00,Wunderground v.1.13,2013-05-31 20:40:00,
2013-05-31 15:45:00,72.7,62.8,29.66,SSE,158,2.0,2.0,71,0.00,,,0.00,Wunderground v.1.13,2013-05-31 20:45:00,
2013-05-31 15:55:00,72.1,62.2,29.66,SW,218,2.0,2.0,71,0.00,,,0.00,Wunderground v.1.13,2013-05-31 20:55:00,
2013-05-31 16:05:00,72.1,61.8,29.66,ESE,123,2.0,2.0,70,0.00,,,0.00,Wunderground v.1.13,2013-05-31 21:05:00,
2013-05-31 16:15:00,71.8,61.5,29.65,SSW,194,2.0,15.0,70,0.00,,,0.00,Wunderground v.1.13,2013-05-31 21:15:00,
2013-05-31 16:25:00,71.6,61.3,29.65,South,181,1.0,1.0,70,0.00,,,0.00,Wunderground v.1.13,2013-05-31 21:25:00,
2013-05-31 16:30:00,71.8,61.5,29.65,South,170,1.0,1.0,70,0.00,,,0.00,Wunderground v.1.13,2013-05-31 21:30:00,
2013-05-31 16:35:00,72.3,62.4,29.65,SSE,161,1.0,1.0,71,0.00,,,0.00,Wunderground v.1.13,2013-05-31 21:35:00,
2013-05-31 16:45:00,73.5,62.3,29.64,South,182,2.0,10.0,68,0.00,,,0.00,Wunderground v.1.13,2013-05-31 21:45:00,
2013-05-31 16:50:00,73.9,61.4,29.64,WSW,250,3.0,10.0,65,0.00,,,0.00,Wunderground v.1.13,2013-05-31 21:50:00,
2013-05-31 16:55:00,74.2,61.7,29.63,SW,236,4.0,10.0,65,0.00,,,0.00,Wunderground v.1.13,2013-05-31 21:55:00,
2013-05-31 17:05:00,74.0,61.5,29.63,SSE,163,3.0,3.0,65,0.00,,,0.00,Wunderground v.1.13,2013-05-31 22:05:00,
2013-05-31 17:15:00,74.2,60.8,29.62,South,173,3.0,3.0,63,0.00,,,0.00,Wunderground v.1.13,2013-05-31 22:15:00,
2013-05-31 17:25:00,74.9,60.1,29.63,South,179,3.0,3.0,60,0.00,,,0.00,Wunderground v.1.13,2013-05-31 22:25:00,
2013-05-31 17:30:00,75.1,60.3,29.63,SSW,211,4.0,9.0,60,0.00,,,0.00,Wunderground v.1.13,2013-05-31 22:30:00,
2013-05-31 17:35:00,74.9,59.1,29.63,South,190,4.0,4.0,58,0.00,,,0.00,Wunderground v.1.13,2013-05-31 22:35:00,
2013-05-31 17:45:00,74.7,58.9,29.61,SSE,165,4.0,4.0,58,0.00,,,0.00,Wunderground v.1.13,2013-05-31 22:45:00,
2013-05-31 17:55:00,74.7,58.9,29.61,SSW,202,3.0,3.0,58,0.00,,,0.00,Wunderground v.1.13,2013-05-31 22:55:00,
2013-05-31 18:00:00,74.6,58.4,29.61,SSW,194,4.0,4.0,57,0.00,,,0.00,Wunderground v.1.13,2013-05-31 23:00:00,
2013-05-31 18:05:00,74.6,58.8,29.61,South,174,4.0,15.0,58,0.00,,,0.00,Wunderground v.1.13,2013-05-31 23:05:00,
2013-05-31 18:15:00,74.4,59.1,29.61,SSW,200,3.0,15.0,59,0.00,,,0.00,Wunderground v.1.13,2013-05-31 23:15:00,
2013-05-31 18:25:00,74.2,59.4,29.61,SSE,161,3.0,3.0,60,0.00,,,0.00,Wunderground v.1.13,2013-05-31 23:25:00,
2013-05-31 18:35:00,74.0,59.7,29.61,South,173,4.0,4.0,61,0.00,,,0.00,Wunderground v.1.13,2013-05-31 23:35:00,
2013-05-31 18:40:00,73.9,60.5,29.61,South,191,4.0,16.0,63,0.00,,,0.00,Wunderground v.1.13,2013-05-31 23:40:00,
2013-05-31 18:50:00,73.5,59.7,29.61,SSW,207,3.0,16.0,62,0.00,,,0.00,Wunderground v.1.13,2013-05-31 23:50:00,
2013-05-31 19:00:00,72.8,60.3,29.61,SW,227,4.0,16.0,65,0.00,,,0.00,Wunderground v.1.13,2013-06-01 00:00:00,
2013-05-31 19:05:00,72.8,60.8,29.61,ESE,121,4.0,4.0,66,0.00,,,0.00,Wunderground v.1.13,2013-06-01 00:05:00,
2013-05-31 19:15:00,72.7,60.3,29.61,SW,231,5.0,5.0,65,0.00,,,0.00,Wunderground v.1.13,2013-06-01 00:15:00,
2013-05-31 19:25:00,72.3,60.7,29.61,South,181,3.0,3.0,67,0.00,,,0.00,Wunderground v.1.13,2013-06-01 00:25:00,
2013-05-31 19:35:00,72.3,61.1,29.61,SSW,198,3.0,3.0,68,0.00,,,0.00,Wunderground v.1.13,2013-06-01 00:35:00,
2013-05-31 19:40:00,72.3,61.1,29.62,SSW,192,2.0,14.0,68,0.00,,,0.00,Wunderground v.1.13,2013-06-01 00:40:00,
2013-05-31 19:50:00,71.8,61.5,29.62,SSW,198,4.0,4.0,70,0.00,,,0.00,Wunderground v.1.13,2013-06-01 00:50:00,
2013-05-31 19:55:00,71.6,61.3,29.61,South,174,3.0,3.0,70,0.00,,,0.00,Wunderground v.1.13,2013-06-01 00:55:00,
2013-05-31 20:05:00,71.1,61.6,29.61,South,190,3.0,21.0,72,0.00,,,0.00,Wunderground v.1.13,2013-06-01 01:05:00,
2013-05-31 20:15:00,70.4,61.3,29.62,South,184,3.0,3.0,73,0.00,,,0.00,Wunderground v.1.13,2013-06-01 01:15:00,
2013-05-31 20:20:00,70.1,61.4,29.62,SW,214,2.0,21.0,74,0.00,,,0.00,Wunderground v.1.13,2013-06-01 01:20:00,
2013-05-31 20:30:00,69.6,61.7,29.61,SSW,207,1.0,1.0,76,0.00,,,0.00,Wunderground v.1.13,2013-06-01 01:30:00,
2013-05-31 20:40:00,69.1,61.6,29.61,South,182,0.0,18.0,77,0.00,,,0.00,Wunderground v.1.13,2013-06-01 01:40:00,
2013-05-31 20:45:00,68.9,61.8,29.61,South,179,0.0,18.0,78,0.00,,,0.00,Wunderground v.1.13,2013-06-01 01:45:00,
2013-05-31 20:55:00,68.4,61.6,29.61,SE,134,0.0,18.0,79,0.00,,,0.00,Wunderground v.1.13,2013-06-01 01:55:00,
2013-05-31 21:00:00,68.3,61.9,29.61,SE,128,0.0,18.0,80,0.00,,,0.00,Wunderground v.1.13,2013-06-01 02:00:00,
2013-05-31 21:05:00,68.1,62.0,29.61,SE,130,0.0,12.0,81,0.00,,,0.00,Wunderground v.1.13,2013-06-01 02:05:00,
2013-05-31 21:15:00,67.8,62.1,29.62,SE,130,0.0,12.0,82,0.00,,,0.00,Wunderground v.1.13,2013-06-01 02:15:00,
2013-05-31 21:25:00,67.3,62.0,29.62,SE,130,0.0,12.0,83,0.00,,,0.00,Wunderground v.1.13,2013-06-01 02:25:00,
2013-05-31 21:30:00,67.1,61.8,29.62,SE,130,0.0,12.0,83,0.00,,,0.00,Wunderground v.1.13,2013-06-01 02:30:00,
2013-05-31 21:40:00,66.8,61.8,29.63,SE,130,0.0,7.0,84,0.00,,,0.00,Wunderground v.1.13,2013-06-01 02:40:00,
2013-05-31 21:45:00,66.8,62.1,29.63,SE,130,0.0,7.0,85,0.00,,,0.00,Wunderground v.1.13,2013-06-01 02:45:00,
2013-05-31 21:50:00,66.6,61.9,29.63,SE,130,0.0,7.0,85,0.00,,,0.00,Wunderground v.1.13,2013-06-01 02:50:00,
2013-05-31 21:55:00,66.4,61.8,29.63,SE,130,0.0,7.0,85,0.00,,,0.00,Wunderground v.1.13,2013-06-01 02:55:00,
2013-05-31 22:05:00,66.1,61.8,29.63,SE,130,0.0,2.0,86,0.00,,,0.00,Wunderground v.1.13,2013-06-01 03:05:00,
2013-05-31 22:15:00,66.3,62.3,29.63,SE,130,0.0,2.0,87,0.00,,,0.00,Wunderground v.1.13,2013-06-01 03:15:00,
2013-05-31 22:25:00,66.3,62.6,29.62,SE,130,0.0,2.0,88,0.00,,,0.00,Wunderground v.1.13,2013-06-01 03:25:00,
2013-05-31 22:35:00,66.4,62.7,29.62,SE,130,0.0,3.0,88,0.00,,,0.00,Wunderground v.1.13,2013-06-01 03:35:00,
2013-05-31 22:40:00,66.4,62.7,29.61,SE,130,0.0,3.0,88,0.00,,,0.00,Wunderground v.1.13,2013-06-01 03:40:00,
2013-05-31 22:50:00,66.6,62.9,29.61,SE,130,0.0,3.0,88,0.00,,,0.00,Wunderground v.1.13,2013-06-01 03:50:00,
2013-05-31 22:55:00,66.6,62.9,29.60,SE,130,0.0,3.0,88,0.00,,,0.00,Wunderground v.1.13,2013-06-01 03:55:00,
2013-05-31 23:00:00,66.8,63.1,29.60,SE,131,0.0,3.0,88,0.00,,,0.00,Wunderground v.1.13,2013-06-01 04:00:00,
2013-05-31 23:05:00,66.8,63.5,29.60,SE,131,0.0,1.0,89,0.00,,,0.00,Wunderground v.1.13,2013-06-01 04:05:00,
2013-05-31 23:15:00,66.8,63.5,29.60,SE,131,0.0,1.0,89,0.00,,,0.00,Wunderground v.1.13,2013-06-01 04:15:00,
2013-05-31 23:25:00,66.9,63.6,29.61,SE,133,0.0,1.0,89,0.00,,,0.00,Wunderground v.1.13,2013-06-01 04:25:00,
2013-05-31 23:35:00,66.9,63.9,29.61,SE,133,0.0,4.0,90,0.00,,,0.00,Wunderground v.1.13,2013-06-01 04:35:00,
2013-05-31 23:45:00,66.9,63.9,29.60,SE,133,0.0,4.0,90,0.00,,,0.00,Wunderground v.1.13,2013-06-01 04:45:00,
2013-05-31 23:50:00,66.9,63.9,29.60,SE,136,0.0,4.0,90,0.00,,,0.00,Wunderground v.1.13,2013-06-01 04:50:00,
2013-05-31 23:55:00,66.8,64.1,29.59,SE,136,0.0,4.0,91,0.00,,,0.00,Wunderground v.1.13,2013-06-01 04:55:00,